Time;durP1;ratioP1;P1;durP2;ratioP2;P2;SDS_P1;SDS_P2;PMS_P1;PMS_P2;Temp;Humidity;BMP_temperature;BMP_pressure;BME280_temperature;BME280_humidity;BME280_pressure;Samples;Min_cycle;Max_cycle;Signal;HPM_P1;HPM_P2
2022/05/21 00:01:30;;;;;;;8.95;7.55;;;;;;;12.85;74.14;101749.03;3582129;40;20060;-67
2022/05/21 00:03:56;;;;;;;10.40;7.07;;;;;;;12.67;74.15;101722.09;3583101;40;20048;-67
2022/05/21 00:06:22;;;;;;;9.95;6.68;;;;;;;12.77;74.13;101739.50;3582267;40;20048;-67
2022/05/21 00:08:47;;;;;;;9.85;6.68;;;;;;;12.85;74.24;101747.19;3581462;40;20075;-67
2022/05/21 00:11:13;;;;;;;10.60;6.50;;;;;;;12.75;74.29;101736.06;3582255;40;20313;-67
2022/05/21 00:13:39;;;;;;;10.60;6.65;;;;;;;12.73;74.10;101737.94;3581574;40;20118;-66
2022/05/21 00:16:05;;;;;;;9.32;6.53;;;;;;;12.77;74.44;101744.91;3582020;40;20059;-67
2022/05/21 00:18:32;;;;;;;9.07;6.10;;;;;;;12.78;74.10;101746.66;3581447;40;20052;-67
2022/05/21 00:20:58;;;;;;;8.30;6.13;;;;;;;12.71;74.13;101741.69;3581433;40;20048;-67
2022/05/21 00:23:31;;;;;;;9.77;6.32;;;;;;;12.50;74.07;101709.56;3582354;40;20051;-67
2022/05/21 00:26:00;;;;;;;6.45;5.57;;;;;;;12.73;74.08;101764.06;3580507;40;20056;-67
2022/05/21 00:28:28;;;;;;;8.15;5.60;;;;;;;12.72;74.21;101752.41;3579798;40;20666;-66
2022/05/21 00:30:55;;;;;;;10.27;5.78;;;;;;;12.72;74.08;101755.09;3581853;40;20052;-67
2022/05/21 00:33:22;;;;;;;7.72;5.30;;;;;;;12.71;74.07;101753.34;3581013;40;20040;-66
2022/05/21 00:35:49;;;;;;;8.98;5.60;;;;;;;12.68;74.10;101755.34;3580304;40;20068;-67
2022/05/21 00:38:15;;;;;;;9.80;5.50;;;;;;;12.63;74.39;101747.53;3581233;40;20052;-66
2022/05/21 00:40:41;;;;;;;10.52;5.25;;;;;;;12.30;74.23;101694.50;3580903;40;20063;-67
2022/05/21 00:43:39;;;;;;;5.75;4.65;;;;;;;12.66;74.54;101762.69;3580821;40;20064;-66
2022/05/21 00:46:09;;;;;;;7.60;5.32;;;;;;;12.67;74.78;101761.72;3581705;40;20059;-66
2022/05/21 00:48:37;;;;;;;7.70;4.93;;;;;;;12.68;74.70;101764.31;3581075;40;20056;-66
2022/05/21 00:51:10;;;;;;;6.38;4.07;;;;;;;12.71;74.19;101761.44;3582726;40;20058;-69
2022/05/21 00:53:37;;;;;;;8.77;4.97;;;;;;;12.75;74.60;101756.78;3587880;40;20409;-66
2022/05/21 00:56:06;;;;;;;6.13;4.43;;;;;;;12.85;74.07;101763.38;3585780;40;20410;-68
2022/05/21 01:01:18;;;;;;;7.07;4.22;;;;;;;12.83;73.98;101749.09;3583442;40;20401;-69
2022/05/21 01:03:44;;;;;;;8.65;4.10;;;;;;;12.91;73.60;101757.63;3583504;40;20072;-67
2022/05/21 01:06:13;;;;;;;6.25;3.83;;;;;;;12.90;73.74;101749.63;3585011;40;20048;-67
2022/05/21 01:08:39;;;;;;;8.65;4.18;;;;;;;12.86;73.26;101742.66;3583820;40;20310;-67
2022/05/21 01:11:15;;;;;;;8.65;4.18;;;;;;;12.99;73.61;101751.78;3581384;40;20056;-68
2022/05/21 01:13:45;;;;;;;8.75;3.50;;;;;;;13.01;73.28;101752.59;3582310;40;20062;-66
2022/05/21 01:16:13;;;;;;;5.68;3.58;;;;;;;13.05;73.31;101759.53;3581978;40;20403;-68
2022/05/21 01:18:39;;;;;;;5.43;3.42;;;;;;;13.06;73.19;101755.00;3582726;40;20350;-66
2022/05/21 01:21:05;;;;;;;9.20;4.07;;;;;;;12.92;73.66;101729.69;3583514;40;20077;-67
2022/05/21 01:23:31;;;;;;;7.38;3.50;;;;;;;13.15;73.38;101760.75;3581645;40;20348;-67
2022/05/21 01:26:00;;;;;;;6.82;3.20;;;;;;;13.03;73.21;101739.84;3583289;40;20052;-67
2022/05/21 01:28:32;;;;;;;5.40;3.05;;;;;;;13.12;73.01;101760.91;3582205;40;20048;-66
2022/05/21 01:31:01;;;;;;;8.95;3.60;;;;;;;13.14;73.47;101763.56;3583499;40;20048;-66
2022/05/21 01:33:34;;;;;;;6.55;3.38;;;;;;;13.09;73.43;101753.00;3582693;40;20137;-66
2022/05/21 01:36:03;;;;;;;8.13;3.00;;;;;;;13.14;73.56;101761.72;3583464;40;20051;-66
2022/05/21 01:38:30;;;;;;;8.57;3.80;;;;;;;13.09;73.22;101739.50;3582030;40;20060;-67
2022/05/21 01:40:57;;;;;;;6.03;2.80;;;;;;;13.10;73.46;101741.25;3584421;40;20048;-67
2022/05/21 01:46:10;;;;;;;7.72;3.85;;;;;;;13.03;73.48;101731.75;3583932;40;20129;-66
2022/05/21 01:48:36;;;;;;;5.78;3.22;;;;;;;13.16;73.76;101746.31;3582922;40;20053;-67
2022/05/21 01:51:05;;;;;;;7.30;3.42;;;;;;;13.18;73.48;101749.78;3582709;40;20113;-67
2022/05/21 01:53:30;;;;;;;7.72;3.63;;;;;;;13.15;73.58;101744.53;3582064;40;20073;-66
2022/05/21 01:55:58;;;;;;;8.82;3.58;;;;;;;13.17;73.26;101745.34;3583404;40;20059;-66
2022/05/21 01:58:26;;;;;;;9.20;3.67;;;;;;;13.17;73.09;101747.19;3582541;40;20059;-66
2022/05/21 02:00:54;;;;;;;6.45;3.50;;;;;;;12.70;72.92;101665.28;3583520;40;20119;-67
2022/05/21 02:03:20;;;;;;;9.98;3.85;;;;;;;13.22;73.42;101753.16;3582343;40;20063;-66
2022/05/21 02:05:45;;;;;;;7.50;3.58;;;;;;;13.13;73.24;101733.00;3582588;40;20064;-67
2022/05/21 02:08:14;;;;;;;8.85;4.22;;;;;;;13.22;73.04;101748.66;3582583;40;20535;-67
2022/05/21 02:10:42;;;;;;;11.85;4.20;;;;;;;13.24;73.55;101756.66;3583484;40;20071;-67
2022/05/21 02:13:19;;;;;;;6.57;3.53;;;;;;;13.21;73.15;101752.28;3583426;40;20351;-67
2022/05/21 02:15:45;;;;;;;8.82;3.33;;;;;;;13.13;73.21;101746.50;3582951;40;20138;-67
2022/05/21 02:18:12;;;;;;;9.68;3.35;;;;;;;13.19;73.27;101758.72;3582339;40;20658;-67
2022/05/21 02:20:39;;;;;;;7.10;3.47;;;;;;;13.19;73.51;101756.03;3583097;40;20476;-67
2022/05/21 02:23:05;;;;;;;8.85;3.42;;;;;;;13.15;73.53;101749.94;3582925;40;20048;-68
2022/05/21 02:25:31;;;;;;;13.10;3.53;;;;;;;13.21;73.42;101760.41;3581998;40;20059;-67
2022/05/21 02:27:56;;;;;;;10.13;3.60;;;;;;;13.23;73.45;101757.63;3584052;40;20163;-67
2022/05/21 02:30:22;;;;;;;7.03;3.13;;;;;;;13.22;73.42;101754.06;3583736;40;20387;-66
2022/05/21 02:32:48;;;;;;;9.93;3.80;;;;;;;13.25;73.32;101761.13;3583511;40;20068;-67
2022/05/21 02:35:14;;;;;;;9.88;3.65;;;;;;;13.18;73.23;101749.78;3584438;40;20060;-67
2022/05/21 02:40:25;;;;;;;9.13;3.72;;;;;;;13.23;73.51;101753.09;3582462;40;20126;-71
2022/05/21 02:42:51;;;;;;;10.52;3.65;;;;;;;13.22;73.61;101754.06;3583562;40;20060;-67
2022/05/21 02:45:24;;;;;;;11.60;3.85;;;;;;;13.14;73.39;101737.41;3581432;40;20379;-67
2022/05/21 02:47:51;;;;;;;10.88;4.20;;;;;;;13.21;74.04;101755.00;3583943;40;20080;-66
2022/05/21 02:50:24;;;;;;;10.55;3.75;;;;;;;13.21;73.43;101752.28;3581304;40;20071;-67
2022/05/21 02:52:50;;;;;;;10.73;4.00;;;;;;;13.23;73.54;101763.88;3582979;40;20059;-66
2022/05/21 02:55:17;;;;;;;10.27;3.78;;;;;;;13.24;73.57;101760.25;3582851;40;20068;-67
2022/05/21 02:57:44;;;;;;;7.32;3.42;;;;;;;13.11;73.68;101737.59;3582848;40;20095;-66
2022/05/21 03:00:20;;;;;;;10.73;4.05;;;;;;;13.18;74.13;101747.06;3582279;40;20060;-66
2022/05/21 03:02:46;;;;;;;11.85;4.05;;;;;;;13.21;73.39;101752.28;3582502;40;20505;-67
2022/05/21 03:05:13;;;;;;;9.57;4.00;;;;;;;13.16;73.77;101749.00;3584219;40;20091;-67
2022/05/21 03:07:42;;;;;;;10.98;4.00;;;;;;;13.27;73.62;101769.13;3583415;40;20060;-66
2022/05/21 03:10:23;;;;;;;9.15;3.45;;;;;;;13.27;73.86;101763.75;3584236;40;20063;-66
2022/05/21 03:12:51;;;;;;;12.18;4.03;;;;;;;13.26;73.63;101761.97;3583468;40;20146;-71
2022/05/21 03:15:20;;;;;;;9.35;3.95;;;;;;;13.23;74.17;101760.31;3583421;40;20054;-67
2022/05/21 03:17:46;;;;;;;9.73;4.30;;;;;;;13.26;74.06;101756.56;3582897;40;20344;-67
2022/05/21 03:20:15;;;;;;;10.68;4.38;;;;;;;13.26;73.62;101751.19;3583194;40;20078;-67
2022/05/21 03:22:42;;;;;;;12.02;4.22;;;;;;;13.22;73.94;101762.16;3582184;40;20126;-66
2022/05/21 03:25:09;;;;;;;7.47;4.60;;;;;;;13.14;73.71;101745.50;3583842;40;20087;-66
2022/05/21 03:27:35;;;;;;;10.77;4.30;;;;;;;13.23;73.89;101758.47;3572492;40;20052;-67
2022/05/21 03:30:07;;;;;;;10.38;4.47;;;;;;;13.20;73.89;101753.25;3582421;40;20122;-68
2022/05/21 03:32:33;;;;;;;10.45;4.20;;;;;;;13.14;74.14;101747.34;3581886;40;20138;-67
2022/05/21 03:34:58;;;;;;;9.25;3.90;;;;;;;13.21;74.33;101760.41;3582370;40;20059;-67
2022/05/21 03:37:24;;;;;;;12.98;4.70;;;;;;;13.20;74.18;101753.25;3583647;40;20047;-67
2022/05/21 03:39:50;;;;;;;13.73;4.55;;;;;;;13.16;74.11;101754.41;3582809;40;20044;-68
2022/05/21 03:42:17;;;;;;;10.93;4.50;;;;;;;13.14;74.10;101761.72;3574228;40;20048;-67
2022/05/21 03:44:43;;;;;;;8.88;4.40;;;;;;;13.17;74.24;101766.94;3582712;40;20060;-66
2022/05/21 03:47:09;;;;;;;10.27;4.32;;;;;;;13.16;74.41;101757.09;3584065;40;20044;-67
2022/05/21 03:49:34;;;;;;;11.10;4.78;;;;;;;13.17;74.37;101752.56;3582560;40;20068;-68
2022/05/21 03:52:01;;;;;;;10.30;4.32;;;;;;;13.19;74.42;101766.84;3583426;40;20076;-67
2022/05/21 03:54:26;;;;;;;7.78;3.78;;;;;;;13.01;74.72;101741.78;3582955;40;20387;-66
2022/05/21 03:56:53;;;;;;;9.95;4.32;;;;;;;13.06;74.46;101746.91;3582519;40;20117;-66
2022/05/21 03:59:19;;;;;;;9.25;4.03;;;;;;;13.19;74.69;101772.22;3584325;40;20133;-68
2022/05/21 04:01:45;;;;;;;12.27;4.43;;;;;;;13.11;74.39;101764.59;3581435;40;20044;-67
2022/05/21 04:04:11;;;;;;;14.48;4.60;;;;;;;13.16;74.47;101767.91;3583501;40;20079;-66
2022/05/21 04:06:37;;;;;;;12.73;4.82;;;;;;;13.16;74.39;101762.50;3582732;40;20540;-66
2022/05/21 04:09:03;;;;;;;12.18;4.30;;;;;;;13.22;74.33;101778.34;3583316;40;20059;-66
2022/05/21 04:11:29;;;;;;;10.52;4.93;;;;;;;13.14;74.53;101759.00;3582494;40;20385;-66
2022/05/21 04:13:57;;;;;;;15.00;5.45;;;;;;;13.24;74.67;101780.94;3583241;40;20040;-66
2022/05/21 04:16:23;;;;;;;12.95;4.60;;;;;;;13.26;74.46;101778.19;3579834;40;20302;-66
2022/05/21 04:18:48;;;;;;;15.32;5.00;;;;;;;13.25;75.04;101782.72;3579956;40;20071;-67
2022/05/21 04:21:14;;;;;;;12.55;4.93;;;;;;;13.23;74.29;101785.47;3583352;40;20060;-67
2022/05/21 04:23:40;;;;;;;10.23;4.22;;;;;;;13.21;74.18;101782.00;3583098;40;22113;-66
2022/05/21 04:26:05;;;;;;;12.88;4.70;;;;;;;13.28;74.73;101793.34;3582961;40;20074;-66
2022/05/21 04:28:31;;;;;;;8.73;4.93;;;;;;;13.24;74.10;101789.94;3564807;40;20337;-66
2022/05/21 04:30:56;;;;;;;12.23;5.20;;;;;;;13.27;74.52;101796.16;3581680;40;20117;-66
2022/05/21 04:33:22;;;;;;;10.20;5.00;;;;;;;13.11;74.38;101769.13;3583180;40;20048;-66
2022/05/21 04:38:34;;;;;;;12.13;5.53;;;;;;;13.24;74.39;101800.75;3582705;40;20082;-66
2022/05/21 04:40:59;;;;;;;14.52;6.25;;;;;;;13.19;74.55;101788.44;3582370;40;20078;-66
2022/05/21 04:43:25;;;;;;;16.05;5.80;;;;;;;13.21;74.69;101798.19;3582425;40;20306;-67
2022/05/21 04:45:50;;;;;;;13.95;6.53;;;;;;;13.28;74.45;101803.28;3573212;40;20060;-66
2022/05/21 04:48:16;;;;;;;18.25;6.35;;;;;;;13.23;74.53;101804.38;3583296;40;20113;-66
2022/05/21 04:50:42;;;;;;;11.90;5.75;;;;;;;13.26;74.63;101800.69;3582776;40;20068;-66
2022/05/21 04:53:08;;;;;;;12.63;6.35;;;;;;;13.27;74.36;101796.16;3583094;40;20393;-66
2022/05/21 04:55:34;;;;;;;17.40;7.57;;;;;;;13.10;73.98;101773.66;3582852;40;20520;-67
2022/05/21 04:57:59;;;;;;;12.65;6.90;;;;;;;13.36;74.08;101811.81;3582752;40;20072;-66
2022/05/21 05:00:25;;;;;;;19.02;8.00;;;;;;;13.38;74.50;101807.19;3572661;40;20048;-66
2022/05/21 05:02:51;;;;;;;15.73;8.48;;;;;;;13.35;74.61;101804.66;3582973;40;20059;-66
2022/05/21 05:05:17;;;;;;;22.05;8.63;;;;;;;13.32;74.45;101799.44;3585160;40;20059;-66
2022/05/21 05:07:42;;;;;;;16.13;8.50;;;;;;;13.38;74.29;101804.47;3584590;40;20072;-66
2022/05/21 05:10:10;;;;;;;17.17;8.75;;;;;;;13.38;74.31;101810.78;3582292;40;20445;-66
2022/05/21 05:12:36;;;;;;;19.20;9.35;;;;;;;13.43;74.22;101818.59;3582866;40;20056;-66
2022/05/21 05:15:02;;;;;;;16.25;8.35;;;;;;;13.44;74.31;101806.81;3580582;40;20098;-66
2022/05/21 05:17:28;;;;;;;18.42;8.45;;;;;;;13.38;74.32;101804.47;3582248;40;20064;-66
2022/05/21 05:19:54;;;;;;;17.15;8.60;;;;;;;13.46;74.80;101810.31;3583056;40;20060;-66
2022/05/21 05:22:21;;;;;;;16.25;8.82;;;;;;;13.50;74.35;101817.28;3583065;40;20048;-67
2022/05/21 05:24:47;;;;;;;15.82;8.50;;;;;;;13.57;74.26;101832.16;3582340;40;20309;-66
2022/05/21 05:27:13;;;;;;;17.55;9.20;;;;;;;13.56;74.08;101825.03;3582517;40;20094;-66
2022/05/21 05:29:38;;;;;;;16.67;9.32;;;;;;;13.62;74.26;101840.00;3581360;40;20138;-66
2022/05/21 05:32:05;;;;;;;15.93;9.07;;;;;;;13.60;73.88;101826.56;3582291;40;20060;-66
2022/05/21 05:34:32;;;;;;;18.58;9.40;;;;;;;13.66;73.91;101842.44;3638753;23;20056;-61
2022/05/21 05:36:57;;;;;;;22.42;9.40;;;;;;;13.67;74.11;101836.09;3563933;40;20137;-62
2022/05/21 05:39:23;;;;;;;18.23;9.63;;;;;;;13.68;74.31;101840.53;3570756;40;20411;-62
2022/05/21 05:41:51;;;;;;;19.00;8.93;;;;;;;13.69;74.22;101847.66;3566806;40;20076;-62
2022/05/21 05:44:16;;;;;;;18.83;9.05;;;;;;;13.73;74.09;101847.47;3566872;40;20061;-62
2022/05/21 05:46:42;;;;;;;19.40;9.93;;;;;;;13.79;73.61;101847.13;3568874;40;20056;-62
2022/05/21 05:49:08;;;;;;;17.10;9.60;;;;;;;13.77;73.82;101846.34;3568328;40;20287;-62
2022/05/21 05:51:34;;;;;;;21.00;9.90;;;;;;;13.82;73.85;101855.03;3568366;40;20057;-62
2022/05/21 05:54:00;;;;;;;16.50;8.98;;;;;;;13.70;73.50;101825.09;3570198;40;20076;-63
2022/05/21 05:56:25;;;;;;;18.40;9.68;;;;;;;13.92;73.89;101848.13;3570764;40;20055;-62
2022/05/21 06:01:35;;;;;;;21.58;10.98;;;;;;;13.98;73.25;101853.16;3569888;40;20096;-62
2022/05/21 06:04:02;;;;;;;23.70;11.10;;;;;;;13.92;72.81;101848.13;3570309;40;20065;-62
2022/05/21 06:06:28;;;;;;;19.48;10.80;;;;;;;13.99;73.01;101854.94;3571571;40;20363;-62
2022/05/21 06:08:54;;;;;;;20.67;11.35;;;;;;;14.03;73.31;101851.06;3572002;40;20083;-62
2022/05/21 06:11:20;;;;;;;20.80;11.05;;;;;;;13.73;72.81;101793.44;3572290;40;20569;-62
2022/05/21 06:13:46;;;;;;;23.20;11.55;;;;;;;14.02;72.69;101841.22;3572372;40;20130;-62
2022/05/21 06:16:11;;;;;;;18.15;11.00;;;;;;;14.23;72.75;101851.69;3571623;40;20128;-62
2022/05/21 06:18:37;;;;;;;20.45;11.38;;;;;;;14.30;72.89;101863.88;3568767;40;20063;-61
2022/05/21 06:21:05;;;;;;;19.77;10.43;;;;;;;14.38;71.57;101862.44;3569578;40;20072;-61
2022/05/21 06:23:33;;;;;;;24.02;10.82;;;;;;;14.42;71.98;101868.53;3571618;40;20080;-62
2022/05/21 06:26:00;;;;;;;21.70;10.98;;;;;;;14.42;71.51;101863.13;3570731;40;20060;-61
2022/05/21 06:28:27;;;;;;;21.13;11.02;;;;;;;14.41;71.70;101872.22;3571598;40;20056;-61
2022/05/21 06:30:53;;;;;;;17.35;9.65;;;;;;;14.54;72.01;101866.97;3570316;40;20068;-61
2022/05/21 06:33:23;;;;;;;19.25;10.52;;;;;;;14.69;70.93;101867.84;3571799;40;20354;-61
2022/05/21 06:36:08;;;;;;;19.65;10.02;;;;;;;14.96;71.14;101873.34;3565482;40;20080;-61
2022/05/21 06:38:34;;;;;;;19.08;10.65;;;;;;;15.18;69.44;101868.28;3569878;40;20422;-61
2022/05/21 06:41:03;;;;;;;23.08;11.00;;;;;;;15.27;68.83;101874.97;3568866;40;20065;-61
2022/05/21 06:43:29;;;;;;;20.75;10.35;;;;;;;15.17;68.62;101871.97;3567461;40;20059;-62
2022/05/21 06:45:54;;;;;;;18.95;10.40;;;;;;;15.16;68.84;101880.19;3568358;40;20096;-61
2022/05/21 06:48:20;;;;;;;23.75;10.98;;;;;;;14.70;69.94;101810.03;3568775;40;20064;-62
2022/05/21 06:50:47;;;;;;;19.58;10.90;;;;;;;15.22;68.65;101877.09;3566883;40;20157;-61
2022/05/21 06:53:13;;;;;;;19.88;11.07;;;;;;;15.26;68.69;101882.22;3570366;40;20049;-61
2022/05/21 06:55:40;;;;;;;23.00;11.77;;;;;;;14.76;68.59;101796.13;3570766;40;20138;-61
2022/05/21 06:58:06;;;;;;;20.98;10.60;;;;;;;15.04;68.50;101839.41;3569668;40;20053;-61
2022/05/21 07:00:32;;;;;;;21.05;11.80;;;;;;;15.42;68.23;101890.22;3569454;40;20064;-62
2022/05/21 07:02:58;;;;;;;23.77;12.18;;;;;;;15.46;67.64;101896.31;3569228;40;20187;-61
2022/05/21 07:08:22;;;;;;;21.38;11.80;;;;;;;15.49;67.30;101901.53;3569161;40;20083;-60
2022/05/21 07:10:49;;;;;;;18.13;10.75;;;;;;;15.49;66.91;101905.09;3566712;40;20064;-63
2022/05/21 07:13:21;;;;;;;19.65;11.00;;;;;;;15.40;67.56;101889.44;3568830;40;20130;-60
2022/05/21 07:15:49;;;;;;;17.63;10.95;;;;;;;15.53;67.47;101906.63;3568630;40;20380;-61
2022/05/21 07:18:18;;;;;;;20.77;11.45;;;;;;;15.55;66.86;101920.09;3569268;40;20053;-61
2022/05/21 07:20:44;;;;;;;25.75;11.55;;;;;;;15.51;67.26;101919.44;3569860;40;20067;-61
2022/05/21 07:23:11;;;;;;;21.15;11.15;;;;;;;15.59;67.20;101926.19;3568589;40;20397;-61
2022/05/21 07:25:39;;;;;;;18.40;10.55;;;;;;;15.64;66.85;101924.06;3568220;40;20049;-62
2022/05/21 07:28:07;;;;;;;17.63;10.80;;;;;;;15.66;66.82;101922.09;3569016;40;20045;-62
2022/05/21 07:30:35;;;;;;;22.65;11.13;;;;;;;15.67;66.73;101924.75;3569876;40;20454;-64
2022/05/21 07:33:00;;;;;;;19.10;11.20;;;;;;;15.70;66.81;101923.69;3559033;40;20396;-62
2022/05/21 07:35:27;;;;;;;20.92;10.75;;;;;;;15.66;65.82;101913.97;3569565;40;20049;-62
2022/05/21 07:37:54;;;;;;;18.67;10.48;;;;;;;15.58;66.19;101883.81;3570723;40;20052;-62
2022/05/21 07:40:26;;;;;;;20.08;10.10;;;;;;;15.83;65.51;101924.63;3569763;40;20053;-62
2022/05/21 07:42:53;;;;;;;21.55;10.73;;;;;;;15.91;66.47;101921.38;3568534;40;20056;-62
2022/05/21 07:45:21;;;;;;;21.50;10.25;;;;;;;16.01;65.84;101927.91;3567484;40;20362;-62
2022/05/21 07:47:49;;;;;;;18.65;10.27;;;;;;;16.09;65.53;101924.69;3569108;40;20061;-62
2022/05/21 07:50:16;;;;;;;23.35;11.00;;;;;;;16.24;64.93;101929.97;3567667;40;20142;-62
2022/05/21 07:52:43;;;;;;;20.60;10.43;;;;;;;16.42;64.62;101926.94;3565482;40;20304;-63
2022/05/21 07:55:12;;;;;;;18.70;10.10;;;;;;;16.71;64.46;101933.06;3567238;40;20065;-62
2022/05/21 07:57:37;;;;;;;20.42;10.30;;;;;;;16.91;63.05;101913.56;3568389;40;20142;-62
2022/05/21 08:00:07;;;;;;;21.60;10.70;;;;;;;17.01;63.37;101923.78;3569710;40;20061;-62
2022/05/21 08:02:32;;;;;;;21.20;10.20;;;;;;;17.25;63.88;101919.25;3567107;40;20056;-62
2022/05/21 08:04:59;;;;;;;19.15;10.52;;;;;;;17.44;62.57;101928.81;3568934;40;20061;-62
2022/05/21 08:07:25;;;;;;;16.95;9.65;;;;;;;17.52;61.59;101935.41;3568395;40;20048;-62
2022/05/21 08:09:51;;;;;;;17.80;8.48;;;;;;;17.53;59.79;101933.56;3567414;40;20081;-62
2022/05/21 08:12:18;;;;;;;24.83;8.98;;;;;;;17.58;59.87;101939.53;3569707;40;20287;-62
2022/05/21 08:14:44;;;;;;;16.25;7.35;;;;;;;17.66;59.52;101945.25;3569563;40;20045;-62
2022/05/21 08:17:11;;;;;;;18.83;8.45;;;;;;;17.80;59.00;101947.03;3569580;40;20056;-61
2022/05/21 08:19:37;;;;;;;17.65;8.32;;;;;;;17.88;57.83;101941.00;3570293;40;20056;-61
2022/05/21 08:27:32;;;;;;;15.80;8.02;;;;;;;18.39;56.84;101940.72;3570927;40;20056;-64
2022/05/21 08:29:58;;;;;;;14.77;8.05;;;;;;;18.56;56.83;101945.75;3568982;40;20073;-62
2022/05/21 08:32:23;;;;;;;18.10;7.85;;;;;;;18.70;55.53;101945.53;3570720;40;20052;-63
2022/05/21 08:34:52;;;;;;;15.73;7.85;;;;;;;18.87;56.05;101948.81;3569596;40;20131;-62
2022/05/21 08:37:19;;;;;;;17.45;8.68;;;;;;;19.22;55.29;101943.28;3571558;40;20113;-62
2022/05/21 08:39:44;;;;;;;18.70;8.60;;;;;;;19.25;53.24;101952.09;3568839;40;20047;-62
2022/05/21 08:42:43;;;;;;;18.13;8.90;;;;;;;19.10;54.69;101947.00;3569645;40;20292;-63
2022/05/21 08:45:45;;;;;;;19.95;9.15;;;;;;;18.84;55.53;101947.22;3566552;40;20359;-62
2022/05/21 08:48:11;;;;;;;18.65;9.70;;;;;;;18.77;55.12;101952.28;3569955;40;20065;-62
2022/05/21 08:50:49;;;;;;;18.05;9.60;;;;;;;18.62;56.56;101937.09;3570133;40;20466;-63
2022/05/21 08:53:23;;;;;;;18.30;8.95;;;;;;;18.45;56.33;101942.97;3569466;40;20071;-62
2022/05/21 08:55:55;;;;;;;16.63;9.80;;;;;;;18.23;56.21;101946.47;3570631;40;20123;-62
2022/05/21 08:58:43;;;;;;;13.48;7.97;;;;;;;18.02;56.54;101927.22;3569880;40;20045;-62
2022/05/21 09:01:18;;;;;;;19.52;8.90;;;;;;;18.30;56.93;101937.75;3568023;40;20118;-63
2022/05/21 09:03:44;;;;;;;19.42;8.30;;;;;;;18.66;56.82;101943.19;3568705;40;20053;-62
2022/05/21 09:06:18;;;;;;;12.95;7.68;;;;;;;18.98;53.97;101929.75;3569684;40;20068;-63
2022/05/21 09:09:33;;;;;;;14.10;6.88;;;;;;;18.90;54.22;101940.38;3569163;40;20327;-63
2022/05/21 09:12:30;;;;;;;16.13;7.00;;;;;;;18.69;54.53;101948.38;3570123;40;20119;-62
2022/05/21 09:15:03;;;;;;;18.88;8.23;;;;;;;18.27;55.08;101899.88;3570454;40;20075;-62
2022/05/21 09:17:28;;;;;;;14.67;7.90;;;;;;;18.82;55.28;101932.84;3571436;40;20099;-62
2022/05/21 09:20:01;;;;;;;12.95;7.53;;;;;;;19.27;54.10;101927.41;3570020;40;20057;-61
2022/05/21 09:22:27;;;;;;;15.68;6.97;;;;;;;19.69;51.82;101922.19;3572421;40;20068;-62
2022/05/21 09:24:57;;;;;;;12.18;5.85;;;;;;;20.06;50.38;101922.69;3570568;40;20072;-61
2022/05/21 09:27:42;;;;;;;12.77;5.07;;;;;;;19.94;49.41;101923.72;3573163;40;20048;-62
2022/05/21 09:30:23;;;;;;;12.40;4.65;;;;;;;19.92;49.98;101918.41;3572536;40;20101;-62
2022/05/21 09:32:53;;;;;;;18.13;5.70;;;;;;;20.05;49.53;101917.38;3569246;40;20065;-63
2022/05/21 09:35:26;;;;;;;10.30;5.13;;;;;;;20.03;49.58;101933.00;3570768;40;20178;-60
2022/05/21 09:37:53;;;;;;;12.45;5.43;;;;;;;19.84;49.63;101930.97;3568197;40;20173;-61
2022/05/21 09:40:38;;;;;;;11.13;5.53;;;;;;;19.73;50.52;101928.25;3571322;40;20052;-62
2022/05/21 09:46:18;;;;;;;16.45;5.70;;;;;;;19.23;51.41;101926.78;3569110;40;20432;-62
2022/05/21 09:48:46;;;;;;;12.25;5.13;;;;;;;19.03;52.06;101924.81;3569580;40;20053;-62
2022/05/21 09:51:33;;;;;;;10.80;4.65;;;;;;;18.77;52.76;101925.03;3562434;40;20081;-62
2022/05/21 09:53:59;;;;;;;10.90;4.30;;;;;;;18.60;53.24;101940.94;3569719;40;20072;-62
2022/05/21 09:56:34;;;;;;;10.45;4.25;;;;;;;18.53;53.55;101941.41;3571505;40;20052;-62
2022/05/21 09:59:18;;;;;;;11.40;4.50;;;;;;;18.88;54.04;101936.94;3570625;40;20677;-62
2022/05/21 10:01:48;;;;;;;11.70;4.55;;;;;;;19.30;52.50;101945.38;3568901;40;20056;-63
2022/05/21 10:04:43;;;;;;;13.38;5.00;;;;;;;19.67;51.19;101935.09;3570581;40;20059;-62
2022/05/21 10:10:59;;;;;;;11.80;7.38;;;;;;;19.70;51.47;101941.16;3571096;40;20052;-63
2022/05/21 10:13:33;;;;;;;13.48;7.03;;;;;;;19.60;51.42;101947.44;3571511;40;20051;-62
2022/05/21 10:16:30;;;;;;;9.90;5.00;;;;;;;19.62;50.06;101946.34;3570215;40;20185;-61
2022/05/21 10:19:23;;;;;;;13.70;5.43;;;;;;;;;;3569586;40;20062;-61
2022/05/21 10:22:10;;;;;;;13.00;5.30;;;;;;;20.08;50.00;101945.28;3568042;40;20064;-61
2022/05/21 10:25:05;;;;;;;9.85;5.00;;;;;;;19.95;50.10;101944.59;3567528;40;20064;-62
2022/05/21 10:28:10;;;;;;;14.73;7.38;;;;;;;19.65;50.81;101954.31;3567054;40;20398;-64
2022/05/21 10:31:24;;;;;;;15.23;7.18;;;;;;;19.47;51.96;101948.50;3570445;40;20504;-61
2022/05/21 10:34:41;;;;;;;15.48;7.20;;;;;;;19.46;52.54;101943.13;3569802;40;20056;-62
2022/05/21 10:38:01;;;;;;;15.07;6.20;;;;;;;19.63;51.25;101942.63;3570874;40;20368;-62
2022/05/21 10:40:54;;;;;;;13.48;6.15;;;;;;;19.80;50.65;101946.72;3569498;40;20068;-62
2022/05/21 10:43:38;;;;;;;12.27;5.45;;;;;;;20.13;50.03;101943.00;3570229;40;20104;-62
2022/05/21 10:46:43;;;;;;;11.00;5.40;;;;;;;20.49;49.93;101942.72;3570314;40;20277;-62
2022/05/21 10:49:59;;;;;;;11.63;5.32;;;;;;;20.70;48.19;101953.72;3571199;40;20067;-62
2022/05/21 10:53:06;;;;;;;11.32;5.03;;;;;;;20.57;48.20;101943.84;3569407;40;20500;-61
2022/05/21 10:55:51;;;;;;;10.93;5.57;;;;;;;20.39;49.55;101948.13;3569598;40;20057;-62
2022/05/21 10:58:34;;;;;;;13.10;5.15;;;;;;;20.45;49.66;101935.81;3571182;40;20049;-62
2022/05/21 11:01:21;;;;;;;12.23;4.78;;;;;;;21.01;49.45;101930.88;3568997;40;20142;-60
2022/05/21 11:04:24;;;;;;;10.13;4.35;;;;;;;21.37;47.62;101946.91;3568532;40;20049;-61
2022/05/21 11:07:10;;;;;;;10.07;4.50;;;;;;;21.20;46.95;101953.88;3569494;40;20057;-61
2022/05/21 11:10:18;;;;;;;9.60;3.83;;;;;;;21.30;46.36;101947.41;3568728;40;20118;-62
2022/05/21 11:13:26;;;;;;;7.70;3.38;;;;;;;21.25;46.55;101951.56;3569407;40;20056;-61
2022/05/21 11:16:09;;;;;;;10.27;3.70;;;;;;;21.08;45.68;101950.34;3568849;40;20332;-62
2022/05/21 11:18:52;;;;;;;10.70;4.00;;;;;;;20.61;46.19;101881.59;3569884;40;20271;-61
2022/05/21 11:21:36;;;;;;;10.52;3.83;;;;;;;21.07;46.92;101949.47;3570489;40;20110;-61
2022/05/21 11:24:16;;;;;;;9.48;2.92;;;;;;;21.56;43.94;101950.56;3569740;40;20073;-61
2022/05/21 11:27:09;;;;;;;6.32;2.60;;;;;;;21.77;41.70;101922.25;3570160;40;20044;-62
2022/05/21 11:30:04;;;;;;;9.18;2.40;;;;;;;22.40;41.45;101944.69;3561084;40;20339;-61
2022/05/21 11:38:36;;;;;;;8.02;3.10;;;;;;;21.60;43.37;101922.94;3627086;22;20110;-63
2022/05/21 11:41:44;;;;;;;11.70;3.65;;;;;;;21.70;42.57;101863.63;3580137;40;20307;-64
2022/05/21 11:47:07;;;;;;;7.07;2.90;;;;;;;22.98;41.74;101937.41;3582558;40;20055;-64
2022/05/21 11:49:44;;;;;;;6.47;2.70;;;;;;;22.92;40.18;101945.16;3581682;40;20070;-64
2022/05/21 11:52:31;;;;;;;8.40;2.38;;;;;;;23.15;40.99;101950.31;3581023;40;20330;-64
2022/05/21 11:54:56;;;;;;;6.85;2.72;;;;;;;23.44;40.54;101942.00;3579512;40;20060;-64
2022/05/21 11:57:50;;;;;;;9.70;3.03;;;;;;;23.30;40.38;101943.34;3578590;40;20084;-64
2022/05/21 12:00:18;;;;;;;8.75;3.50;;;;;;;23.26;39.89;101941.94;3579972;40;20298;-63
2022/05/21 12:02:53;;;;;;;7.93;3.22;;;;;;;23.36;38.72;101937.25;3581076;40;20052;-66
2022/05/21 12:05:41;;;;;;;7.65;3.88;;;;;;;23.51;39.89;101923.91;3580087;40;20055;-64
2022/05/21 12:08:17;;;;;;;9.38;3.70;;;;;;;23.62;40.23;101928.31;3580843;40;20048;-65
2022/05/21 12:11:04;;;;;;;8.32;3.30;;;;;;;23.74;38.53;101940.84;3578179;40;20060;-64
2022/05/21 12:13:35;;;;;;;7.28;2.50;;;;;;;23.31;38.51;101935.97;3580384;40;20048;-64
2022/05/21 12:16:18;;;;;;;5.80;2.47;;;;;;;23.37;38.41;101939.00;3579937;40;20402;-64
2022/05/21 12:18:54;;;;;;;7.35;2.92;;;;;;;23.38;40.05;101928.88;3580632;40;20044;-64